sensor_id;sensor_type;location;lat;lon;timestamp;temperature;humidity
57829;DHT22;43657;52.698;6.314;2022-09-02T00:00:47;14.50;76.90
57829;DHT22;43657;52.698;6.314;2022-09-02T00:03:13;14.50;77.00
57829;DHT22;43657;52.698;6.314;2022-09-02T00:05:39;14.50;77.00
57829;DHT22;43657;52.698;6.314;2022-09-02T00:08:05;14.40;76.90
57829;DHT22;43657;52.698;6.314;2022-09-02T00:10:35;14.40;76.90
57829;DHT22;43657;52.698;6.314;2022-09-02T00:13:00;14.40;77.00
57829;DHT22;43657;52.698;6.314;2022-09-02T00:15:26;14.40;77.30
57829;DHT22;43657;52.698;6.314;2022-09-02T00:17:52;14.30;77.20
57829;DHT22;43657;52.698;6.314;2022-09-02T00:20:18;14.40;77.30
57829;DHT22;43657;52.698;6.314;2022-09-02T00:22:44;14.30;77.20
57829;DHT22;43657;52.698;6.314;2022-09-02T00:25:10;14.30;77.60
57829;DHT22;43657;52.698;6.314;2022-09-02T00:27:37;14.30;77.60
57829;DHT22;43657;52.698;6.314;2022-09-02T00:30:04;14.30;77.70
57829;DHT22;43657;52.698;6.314;2022-09-02T00:32:30;14.30;77.80
57829;DHT22;43657;52.698;6.314;2022-09-02T00:34:55;14.30;77.80
57829;DHT22;43657;52.698;6.314;2022-09-02T00:37:22;14.20;77.80
57829;DHT22;43657;52.698;6.314;2022-09-02T00:39:48;14.20;78.00
57829;DHT22;43657;52.698;6.314;2022-09-02T00:42:15;14.20;78.10
57829;DHT22;43657;52.698;6.314;2022-09-02T00:44:40;14.20;78.10
57829;DHT22;43657;52.698;6.314;2022-09-02T00:47:06;14.20;78.20
57829;DHT22;43657;52.698;6.314;2022-09-02T00:49:35;14.20;78.50
57829;DHT22;43657;52.698;6.314;2022-09-02T00:54:33;14.10;78.70
57829;DHT22;43657;52.698;6.314;2022-09-02T00:57:00;14.10;78.90
57829;DHT22;43657;52.698;6.314;2022-09-02T00:59:45;14.00;78.90
57829;DHT22;43657;52.698;6.314;2022-09-02T01:02:13;14.00;79.20
57829;DHT22;43657;52.698;6.314;2022-09-02T01:04:40;14.00;79.40
57829;DHT22;43657;52.698;6.314;2022-09-02T01:07:07;13.90;79.50
57829;DHT22;43657;52.698;6.314;2022-09-02T01:09:34;13.90;79.60
57829;DHT22;43657;52.698;6.314;2022-09-02T01:12:01;13.90;79.80
57829;DHT22;43657;52.698;6.314;2022-09-02T01:14:28;13.90;80.00
57829;DHT22;43657;52.698;6.314;2022-09-02T01:16:57;13.80;80.00
57829;DHT22;43657;52.698;6.314;2022-09-02T01:19:31;13.80;80.40
57829;DHT22;43657;52.698;6.314;2022-09-02T01:21:59;13.80;80.50
57829;DHT22;43657;52.698;6.314;2022-09-02T01:24:28;13.80;80.80
57829;DHT22;43657;52.698;6.314;2022-09-02T01:26:56;13.80;80.90
57829;DHT22;43657;52.698;6.314;2022-09-02T01:29:24;13.70;80.90
57829;DHT22;43657;52.698;6.314;2022-09-02T01:31:50;13.70;81.10
57829;DHT22;43657;52.698;6.314;2022-09-02T01:34:16;13.70;81.40
57829;DHT22;43657;52.698;6.314;2022-09-02T01:36:42;13.70;81.50
57829;DHT22;43657;52.698;6.314;2022-09-02T01:39:09;13.70;81.70
57829;DHT22;43657;52.698;6.314;2022-09-02T01:41:36;13.60;81.80
57829;DHT22;43657;52.698;6.314;2022-09-02T01:44:04;13.70;82.10
57829;DHT22;43657;52.698;6.314;2022-09-02T01:46:30;13.60;82.30
57829;DHT22;43657;52.698;6.314;2022-09-02T01:48:55;13.60;82.30
57829;DHT22;43657;52.698;6.314;2022-09-02T01:51:21;13.60;82.50
57829;DHT22;43657;52.698;6.314;2022-09-02T01:53:47;13.60;82.70
57829;DHT22;43657;52.698;6.314;2022-09-02T01:56:13;13.60;82.80
57829;DHT22;43657;52.698;6.314;2022-09-02T01:58:39;13.60;82.80
57829;DHT22;43657;52.698;6.314;2022-09-02T02:01:05;13.60;83.30
57829;DHT22;43657;52.698;6.314;2022-09-02T02:03:33;13.50;83.30
57829;DHT22;43657;52.698;6.314;2022-09-02T02:06:00;13.50;83.50
57829;DHT22;43657;52.698;6.314;2022-09-02T02:08:26;13.60;83.80
57829;DHT22;43657;52.698;6.314;2022-09-02T02:10:52;13.50;84.00
57829;DHT22;43657;52.698;6.314;2022-09-02T02:13:17;13.50;84.30
57829;DHT22;43657;52.698;6.314;2022-09-02T02:15:43;13.50;84.50
57829;DHT22;43657;52.698;6.314;2022-09-02T02:18:10;13.50;84.70
57829;DHT22;43657;52.698;6.314;2022-09-02T02:20:37;13.50;85.00
57829;DHT22;43657;52.698;6.314;2022-09-02T02:23:04;13.50;85.20
57829;DHT22;43657;52.698;6.314;2022-09-02T02:25:30;13.40;85.20
57829;DHT22;43657;52.698;6.314;2022-09-02T02:27:56;13.40;85.60
57829;DHT22;43657;52.698;6.314;2022-09-02T02:30:21;13.40;85.60
57829;DHT22;43657;52.698;6.314;2022-09-02T02:32:47;13.40;86.10
57829;DHT22;43657;52.698;6.314;2022-09-02T02:35:16;13.40;86.40
57829;DHT22;43657;52.698;6.314;2022-09-02T02:37:43;13.40;86.70
57829;DHT22;43657;52.698;6.314;2022-09-02T02:40:10;13.40;86.60
57829;DHT22;43657;52.698;6.314;2022-09-02T02:42:37;13.40;86.90
57829;DHT22;43657;52.698;6.314;2022-09-02T02:45:04;13.30;87.10
57829;DHT22;43657;52.698;6.314;2022-09-02T02:47:37;13.30;87.50
57829;DHT22;43657;52.698;6.314;2022-09-02T02:50:04;13.30;87.70
57829;DHT22;43657;52.698;6.314;2022-09-02T02:52:30;13.30;88.10
57829;DHT22;43657;52.698;6.314;2022-09-02T02:54:56;13.30;88.30
57829;DHT22;43657;52.698;6.314;2022-09-02T02:57:21;13.30;89.30
57829;DHT22;43657;52.698;6.314;2022-09-02T02:59:47;13.30;88.90
57829;DHT22;43657;52.698;6.314;2022-09-02T03:02:12;13.30;88.70
57829;DHT22;43657;52.698;6.314;2022-09-02T03:04:38;13.40;89.10
57829;DHT22;43657;52.698;6.314;2022-09-02T03:07:04;13.40;89.10
57829;DHT22;43657;52.698;6.314;2022-09-02T03:09:31;13.30;89.10
57829;DHT22;43657;52.698;6.314;2022-09-02T03:11:57;13.30;89.30
57829;DHT22;43657;52.698;6.314;2022-09-02T03:14:23;13.30;89.40
57829;DHT22;43657;52.698;6.314;2022-09-02T03:16:49;13.30;89.70
57829;DHT22;43657;52.698;6.314;2022-09-02T03:19:14;13.30;89.90
57829;DHT22;43657;52.698;6.314;2022-09-02T03:21:41;13.30;90.00
57829;DHT22;43657;52.698;6.314;2022-09-02T03:24:09;13.30;90.10
57829;DHT22;43657;52.698;6.314;2022-09-02T03:26:35;13.30;90.20
57829;DHT22;43657;52.698;6.314;2022-09-02T03:29:00;13.30;90.20
57829;DHT22;43657;52.698;6.314;2022-09-02T03:31:26;13.30;90.30
57829;DHT22;43657;52.698;6.314;2022-09-02T03:33:53;13.30;90.50
57829;DHT22;43657;52.698;6.314;2022-09-02T03:36:28;13.20;90.50
57829;DHT22;43657;52.698;6.314;2022-09-02T03:38:54;13.20;90.70
57829;DHT22;43657;52.698;6.314;2022-09-02T03:41:20;13.20;90.80
57829;DHT22;43657;52.698;6.314;2022-09-02T03:43:46;13.20;90.80
57829;DHT22;43657;52.698;6.314;2022-09-02T03:46:12;13.20;91.10
57829;DHT22;43657;52.698;6.314;2022-09-02T03:48:38;13.30;91.20
57829;DHT22;43657;52.698;6.314;2022-09-02T03:51:05;13.20;91.30
57829;DHT22;43657;52.698;6.314;2022-09-02T03:53:31;13.20;91.30
57829;DHT22;43657;52.698;6.314;2022-09-02T03:55:57;13.20;91.50
57829;DHT22;43657;52.698;6.314;2022-09-02T03:58:23;13.20;91.50
57829;DHT22;43657;52.698;6.314;2022-09-02T04:00:50;13.10;91.70
57829;DHT22;43657;52.698;6.314;2022-09-02T04:03:16;13.10;91.80
57829;DHT22;43657;52.698;6.314;2022-09-02T04:05:46;13.10;91.90
57829;DHT22;43657;52.698;6.314;2022-09-02T04:08:11;13.10;92.10
57829;DHT22;43657;52.698;6.314;2022-09-02T04:10:37;13.10;92.10
57829;DHT22;43657;52.698;6.314;2022-09-02T04:13:02;13.00;92.20
57829;DHT22;43657;52.698;6.314;2022-09-02T04:15:28;13.00;92.40
57829;DHT22;43657;52.698;6.314;2022-09-02T04:17:53;13.00;92.40
57829;DHT22;43657;52.698;6.314;2022-09-02T04:20:21;13.00;92.90
57829;DHT22;43657;52.698;6.314;2022-09-02T04:22:47;12.90;92.90
57829;DHT22;43657;52.698;6.314;2022-09-02T04:25:13;12.90;93.00
57829;DHT22;43657;52.698;6.314;2022-09-02T04:27:39;12.90;93.40
57829;DHT22;43657;52.698;6.314;2022-09-02T04:30:06;12.80;93.50
57829;DHT22;43657;52.698;6.314;2022-09-02T04:32:32;12.80;93.60
57829;DHT22;43657;52.698;6.314;2022-09-02T04:34:58;12.80;93.80
57829;DHT22;43657;52.698;6.314;2022-09-02T04:37:23;12.80;94.20
57829;DHT22;43657;52.698;6.314;2022-09-02T04:39:49;12.70;94.30
57829;DHT22;43657;52.698;6.314;2022-09-02T04:42:15;12.70;94.80
57829;DHT22;43657;52.698;6.314;2022-09-02T04:44:40;12.70;94.80
57829;DHT22;43657;52.698;6.314;2022-09-02T04:47:06;12.70;94.90
57829;DHT22;43657;52.698;6.314;2022-09-02T04:49:31;12.70;95.00
57829;DHT22;43657;52.698;6.314;2022-09-02T04:51:58;12.70;95.50
57829;DHT22;43657;52.698;6.314;2022-09-02T04:54:24;12.70;95.40
57829;DHT22;43657;52.698;6.314;2022-09-02T04:56:49;12.60;95.40
57829;DHT22;43657;52.698;6.314;2022-09-02T04:59:15;12.70;95.90
57829;DHT22;43657;52.698;6.314;2022-09-02T05:01:41;12.60;95.70
57829;DHT22;43657;52.698;6.314;2022-09-02T05:04:07;12.60;95.70
57829;DHT22;43657;52.698;6.314;2022-09-02T05:06:34;12.60;95.80
57829;DHT22;43657;52.698;6.314;2022-09-02T05:09:01;12.60;95.70
57829;DHT22;43657;52.698;6.314;2022-09-02T05:11:28;12.60;95.80
57829;DHT22;43657;52.698;6.314;2022-09-02T05:13:59;12.60;96.00
57829;DHT22;43657;52.698;6.314;2022-09-02T05:16:28;12.60;96.10
57829;DHT22;43657;52.698;6.314;2022-09-02T05:18:55;12.60;96.40
57829;DHT22;43657;52.698;6.314;2022-09-02T05:21:21;12.60;96.60
57829;DHT22;43657;52.698;6.314;2022-09-02T05:23:48;12.60;96.40
57829;DHT22;43657;52.698;6.314;2022-09-02T05:26:14;12.60;97.00
57829;DHT22;43657;52.698;6.314;2022-09-02T05:28:41;12.70;97.00
57829;DHT22;43657;52.698;6.314;2022-09-02T05:31:18;12.60;96.80
57829;DHT22;43657;52.698;6.314;2022-09-02T05:33:44;12.70;97.50
57829;DHT22;43657;52.698;6.314;2022-09-02T05:36:13;12.70;97.10
57829;DHT22;43657;52.698;6.314;2022-09-02T05:38:40;12.70;97.20
57829;DHT22;43657;52.698;6.314;2022-09-02T05:41:07;12.80;97.20
57829;DHT22;43657;52.698;6.314;2022-09-02T05:43:35;12.80;97.30
57829;DHT22;43657;52.698;6.314;2022-09-02T05:46:09;12.80;97.30
57829;DHT22;43657;52.698;6.314;2022-09-02T05:48:37;12.80;97.20
57829;DHT22;43657;52.698;6.314;2022-09-02T05:51:22;12.90;97.20
57829;DHT22;43657;52.698;6.314;2022-09-02T05:53:52;12.90;97.30
57829;DHT22;43657;52.698;6.314;2022-09-02T05:56:18;12.90;97.40
57829;DHT22;43657;52.698;6.314;2022-09-02T05:58:44;13.00;97.70
57829;DHT22;43657;52.698;6.314;2022-09-02T06:01:11;13.00;97.50
57829;DHT22;43657;52.698;6.314;2022-09-02T06:03:37;13.00;97.70
57829;DHT22;43657;52.698;6.314;2022-09-02T06:06:03;13.10;97.70
57829;DHT22;43657;52.698;6.314;2022-09-02T06:08:30;13.10;97.60
57829;DHT22;43657;52.698;6.314;2022-09-02T06:10:56;13.20;97.80
57829;DHT22;43657;52.698;6.314;2022-09-02T06:13:22;13.20;97.80
57829;DHT22;43657;52.698;6.314;2022-09-02T06:15:49;13.20;97.90
57829;DHT22;43657;52.698;6.314;2022-09-02T06:18:15;13.30;97.70
57829;DHT22;43657;52.698;6.314;2022-09-02T06:20:43;13.30;97.60
57829;DHT22;43657;52.698;6.314;2022-09-02T06:23:10;13.40;97.40
57829;DHT22;43657;52.698;6.314;2022-09-02T06:25:37;13.50;97.40
57829;DHT22;43657;52.698;6.314;2022-09-02T06:28:04;13.60;97.40
57829;DHT22;43657;52.698;6.314;2022-09-02T06:30:30;13.60;97.50
57829;DHT22;43657;52.698;6.314;2022-09-02T06:32:55;13.80;97.20
57829;DHT22;43657;52.698;6.314;2022-09-02T06:35:21;13.80;97.00
57829;DHT22;43657;52.698;6.314;2022-09-02T06:37:47;13.90;96.80
57829;DHT22;43657;52.698;6.314;2022-09-02T06:40:13;14.10;96.50
57829;DHT22;43657;52.698;6.314;2022-09-02T06:42:39;14.10;96.30
57829;DHT22;43657;52.698;6.314;2022-09-02T06:45:05;14.20;96.00
57829;DHT22;43657;52.698;6.314;2022-09-02T06:47:31;14.30;95.80
57829;DHT22;43657;52.698;6.314;2022-09-02T06:49:58;14.40;95.60
57829;DHT22;43657;52.698;6.314;2022-09-02T06:52:24;14.50;95.20
57829;DHT22;43657;52.698;6.314;2022-09-02T06:54:50;14.60;95.00
57829;DHT22;43657;52.698;6.314;2022-09-02T06:57:16;14.80;94.70
57829;DHT22;43657;52.698;6.314;2022-09-02T06:59:42;14.90;94.10
57829;DHT22;43657;52.698;6.314;2022-09-02T07:02:08;14.90;93.70
57829;DHT22;43657;52.698;6.314;2022-09-02T07:04:34;15.10;93.60
57829;DHT22;43657;52.698;6.314;2022-09-02T07:07:18;15.10;93.30
57829;DHT22;43657;52.698;6.314;2022-09-02T07:09:43;15.30;93.10
57829;DHT22;43657;52.698;6.314;2022-09-02T07:12:10;15.30;92.50
57829;DHT22;43657;52.698;6.314;2022-09-02T07:14:41;15.50;92.60
57829;DHT22;43657;52.698;6.314;2022-09-02T07:17:09;15.50;92.30
57829;DHT22;43657;52.698;6.314;2022-09-02T07:19:35;15.70;92.30
57829;DHT22;43657;52.698;6.314;2022-09-02T07:22:05;15.80;92.10
57829;DHT22;43657;52.698;6.314;2022-09-02T07:24:31;16.00;91.50
57829;DHT22;43657;52.698;6.314;2022-09-02T07:26:57;16.20;91.00
57829;DHT22;43657;52.698;6.314;2022-09-02T07:29:23;16.30;90.70
57829;DHT22;43657;52.698;6.314;2022-09-02T07:31:49;16.40;90.10
57829;DHT22;43657;52.698;6.314;2022-09-02T07:34:15;16.50;90.30
57829;DHT22;43657;52.698;6.314;2022-09-02T07:36:41;16.60;90.20
57829;DHT22;43657;52.698;6.314;2022-09-02T07:39:09;16.80;90.40
57829;DHT22;43657;52.698;6.314;2022-09-02T07:41:36;16.90;88.80
57829;DHT22;43657;52.698;6.314;2022-09-02T07:44:03;17.00;86.10
57829;DHT22;43657;52.698;6.314;2022-09-02T07:46:29;17.00;86.40
57829;DHT22;43657;52.698;6.314;2022-09-02T07:48:57;17.00;86.40
57829;DHT22;43657;52.698;6.314;2022-09-02T07:51:24;17.00;85.30
57829;DHT22;43657;52.698;6.314;2022-09-02T07:53:50;17.00;85.20
57829;DHT22;43657;52.698;6.314;2022-09-02T07:56:16;17.20;84.80
57829;DHT22;43657;52.698;6.314;2022-09-02T07:58:44;17.20;84.40
57829;DHT22;43657;52.698;6.314;2022-09-02T08:01:11;17.30;82.80
57829;DHT22;43657;52.698;6.314;2022-09-02T08:03:39;17.40;82.70
57829;DHT22;43657;52.698;6.314;2022-09-02T08:06:06;17.50;82.30
57829;DHT22;43657;52.698;6.314;2022-09-02T08:08:33;17.60;81.90
57829;DHT22;43657;52.698;6.314;2022-09-02T08:10:59;17.70;82.30
57829;DHT22;43657;52.698;6.314;2022-09-02T08:13:25;17.80;82.60
57829;DHT22;43657;52.698;6.314;2022-09-02T08:15:51;17.90;82.60
57829;DHT22;43657;52.698;6.314;2022-09-02T08:18:17;18.00;82.40
57829;DHT22;43657;52.698;6.314;2022-09-02T08:20:43;18.20;82.30
57829;DHT22;43657;52.698;6.314;2022-09-02T08:23:09;18.30;81.70
57829;DHT22;43657;52.698;6.314;2022-09-02T08:25:35;18.40;81.00
57829;DHT22;43657;52.698;6.314;2022-09-02T08:28:01;18.50;79.90
57829;DHT22;43657;52.698;6.314;2022-09-02T08:30:27;18.70;79.50
57829;DHT22;43657;52.698;6.314;2022-09-02T08:32:52;18.90;79.30
57829;DHT22;43657;52.698;6.314;2022-09-02T08:35:18;19.10;78.00
57829;DHT22;43657;52.698;6.314;2022-09-02T08:37:45;19.50;77.70
57829;DHT22;43657;52.698;6.314;2022-09-02T08:40:19;20.10;76.10
57829;DHT22;43657;52.698;6.314;2022-09-02T08:42:53;20.80;76.30
57829;DHT22;43657;52.698;6.314;2022-09-02T08:45:35;21.50;75.80
57829;DHT22;43657;52.698;6.314;2022-09-02T08:48:21;22.30;75.00
57829;DHT22;43657;52.698;6.314;2022-09-02T08:50:56;23.10;70.50
57829;DHT22;43657;52.698;6.314;2022-09-02T08:56:02;23.70;65.10
57829;DHT22;43657;52.698;6.314;2022-09-02T08:58:38;24.00;66.30
57829;DHT22;43657;52.698;6.314;2022-09-02T09:03:38;24.60;65.50
57829;DHT22;43657;52.698;6.314;2022-09-02T09:09:11;25.00;61.20
57829;DHT22;43657;52.698;6.314;2022-09-02T09:14:57;25.20;60.60
57829;DHT22;43657;52.698;6.314;2022-09-02T09:19:58;25.60;56.90
57829;DHT22;43657;52.698;6.314;2022-09-02T09:22:30;25.50;58.10
57829;DHT22;43657;52.698;6.314;2022-09-02T09:24:56;25.60;58.80
57829;DHT22;43657;52.698;6.314;2022-09-02T09:27:22;25.70;57.90
57829;DHT22;43657;52.698;6.314;2022-09-02T09:29:49;25.90;58.20
57829;DHT22;43657;52.698;6.314;2022-09-02T09:32:39;26.00;58.10
57829;DHT22;43657;52.698;6.314;2022-09-02T09:37:39;26.50;57.20
57829;DHT22;43657;52.698;6.314;2022-09-02T09:42:47;27.10;54.10
57829;DHT22;43657;52.698;6.314;2022-09-02T09:45:25;27.40;54.30
57829;DHT22;43657;52.698;6.314;2022-09-02T09:50:32;27.50;53.30
57829;DHT22;43657;52.698;6.314;2022-09-02T09:53:18;27.50;50.90
57829;DHT22;43657;52.698;6.314;2022-09-02T09:55:59;27.30;50.10
57829;DHT22;43657;52.698;6.314;2022-09-02T10:01:20;26.90;50.70
57829;DHT22;43657;52.698;6.314;2022-09-02T10:04:07;27.00;49.90
57829;DHT22;43657;52.698;6.314;2022-09-02T10:11:54;27.20;48.90
57829;DHT22;43657;52.698;6.314;2022-09-02T10:14:20;27.40;49.70
57829;DHT22;43657;52.698;6.314;2022-09-02T10:16:55;27.60;48.30
57829;DHT22;43657;52.698;6.314;2022-09-02T10:30:10;27.40;48.10
57829;DHT22;43657;52.698;6.314;2022-09-02T10:35:39;28.00;49.30
57829;DHT22;43657;52.698;6.314;2022-09-02T10:41:32;28.20;46.00
57829;DHT22;43657;52.698;6.314;2022-09-02T10:43:58;28.30;46.60
57829;DHT22;43657;52.698;6.314;2022-09-02T10:46:25;28.40;44.80
57829;DHT22;43657;52.698;6.314;2022-09-02T10:49:09;28.40;46.20
57829;DHT22;43657;52.698;6.314;2022-09-02T10:51:43;28.50;44.40
57829;DHT22;43657;52.698;6.314;2022-09-02T10:54:23;28.30;45.20
57829;DHT22;43657;52.698;6.314;2022-09-02T10:57:03;28.30;46.30
57829;DHT22;43657;52.698;6.314;2022-09-02T10:59:46;28.70;43.30
57829;DHT22;43657;52.698;6.314;2022-09-02T11:02:27;28.40;45.20
57829;DHT22;43657;52.698;6.314;2022-09-02T11:07:51;28.60;45.70
57829;DHT22;43657;52.698;6.314;2022-09-02T11:10:22;28.80;44.80
57829;DHT22;43657;52.698;6.314;2022-09-02T11:20:46;29.00;43.50
57829;DHT22;43657;52.698;6.314;2022-09-02T11:23:43;29.10;42.70
57829;DHT22;43657;52.698;6.314;2022-09-02T11:26:27;28.80;44.20
57829;DHT22;43657;52.698;6.314;2022-09-02T11:32:36;28.80;43.20
57829;DHT22;43657;52.698;6.314;2022-09-02T11:35:05;28.40;43.80
57829;DHT22;43657;52.698;6.314;2022-09-02T11:37:53;28.40;43.50
57829;DHT22;43657;52.698;6.314;2022-09-02T11:43:30;28.00;43.90
57829;DHT22;43657;52.698;6.314;2022-09-02T11:52:00;27.60;44.70
57829;DHT22;43657;52.698;6.314;2022-09-02T11:54:39;27.80;45.30
57829;DHT22;43657;52.698;6.314;2022-09-02T11:57:06;27.90;44.90
57829;DHT22;43657;52.698;6.314;2022-09-02T12:02:44;28.60;43.30
57829;DHT22;43657;52.698;6.314;2022-09-02T12:13:05;29.00;41.40
57829;DHT22;43657;52.698;6.314;2022-09-02T12:15:32;28.90;42.40
57829;DHT22;43657;52.698;6.314;2022-09-02T12:18:11;29.00;43.00
57829;DHT22;43657;52.698;6.314;2022-09-02T12:26:09;29.80;43.00
57829;DHT22;43657;52.698;6.314;2022-09-02T12:28:34;30.20;42.00
57829;DHT22;43657;52.698;6.314;2022-09-02T12:33:40;30.40;40.70
57829;DHT22;43657;52.698;6.314;2022-09-02T12:36:07;30.20;40.10
57829;DHT22;43657;52.698;6.314;2022-09-02T12:38:41;30.00;40.70
57829;DHT22;43657;52.698;6.314;2022-09-02T12:41:23;30.00;41.30
57829;DHT22;43657;52.698;6.314;2022-09-02T12:51:56;30.20;42.00
57829;DHT22;43657;52.698;6.314;2022-09-02T12:54:48;30.20;41.90
57829;DHT22;43657;52.698;6.314;2022-09-02T12:57:16;30.40;39.70
57829;DHT22;43657;52.698;6.314;2022-09-02T12:59:43;30.20;40.40
57829;DHT22;43657;52.698;6.314;2022-09-02T13:02:29;30.00;41.40
57829;DHT22;43657;52.698;6.314;2022-09-02T13:05:25;29.90;41.90
57829;DHT22;43657;52.698;6.314;2022-09-02T13:31:25;28.20;40.50
57829;DHT22;43657;52.698;6.314;2022-09-02T13:34:00;28.00;41.40
57829;DHT22;43657;52.698;6.314;2022-09-02T13:36:35;28.00;41.60
57829;DHT22;43657;52.698;6.314;2022-09-02T13:39:24;28.10;42.10
57829;DHT22;43657;52.698;6.314;2022-09-02T13:41:50;28.20;41.90
57829;DHT22;43657;52.698;6.314;2022-09-02T13:44:24;28.40;40.30
57829;DHT22;43657;52.698;6.314;2022-09-02T13:47:01;28.30;40.40
57829;DHT22;43657;52.698;6.314;2022-09-02T13:49:35;28.40;42.00
57829;DHT22;43657;52.698;6.314;2022-09-02T13:52:01;28.80;42.10
57829;DHT22;43657;52.698;6.314;2022-09-02T13:54:36;29.00;41.20
57829;DHT22;43657;52.698;6.314;2022-09-02T13:57:10;29.00;41.20
57829;DHT22;43657;52.698;6.314;2022-09-02T13:59:48;28.90;40.70
57829;DHT22;43657;52.698;6.314;2022-09-02T14:02:35;28.50;40.80
57829;DHT22;43657;52.698;6.314;2022-09-02T14:07:40;27.50;42.90
57829;DHT22;43657;52.698;6.314;2022-09-02T14:10:10;27.10;43.20
57829;DHT22;43657;52.698;6.314;2022-09-02T14:12:38;26.80;43.10
57829;DHT22;43657;52.698;6.314;2022-09-02T14:15:11;26.60;43.70
57829;DHT22;43657;52.698;6.314;2022-09-02T14:17:37;26.60;44.00
57829;DHT22;43657;52.698;6.314;2022-09-02T14:20:20;26.60;44.20
57829;DHT22;43657;52.698;6.314;2022-09-02T14:22:56;26.90;43.90
57829;DHT22;43657;52.698;6.314;2022-09-02T14:25:24;27.00;43.80
57829;DHT22;43657;52.698;6.314;2022-09-02T14:27:52;27.20;43.60
57829;DHT22;43657;52.698;6.314;2022-09-02T14:30:31;27.30;43.10
57829;DHT22;43657;52.698;6.314;2022-09-02T14:36:07;27.20;43.50
57829;DHT22;43657;52.698;6.314;2022-09-02T14:41:32;27.10;43.60
57829;DHT22;43657;52.698;6.314;2022-09-02T14:44:07;26.90;43.40
57829;DHT22;43657;52.698;6.314;2022-09-02T14:49:16;26.70;43.40
57829;DHT22;43657;52.698;6.314;2022-09-02T14:51:50;26.60;43.30
57829;DHT22;43657;52.698;6.314;2022-09-02T14:54:39;26.30;43.30
57829;DHT22;43657;52.698;6.314;2022-09-02T14:59:44;25.70;44.90
57829;DHT22;43657;52.698;6.314;2022-09-02T15:04:49;25.60;44.90
57829;DHT22;43657;52.698;6.314;2022-09-02T15:07:14;25.50;44.60
57829;DHT22;43657;52.698;6.314;2022-09-02T15:09:40;25.50;44.00
57829;DHT22;43657;52.698;6.314;2022-09-02T15:12:09;25.40;43.80
57829;DHT22;43657;52.698;6.314;2022-09-02T15:14:36;25.30;44.00
57829;DHT22;43657;52.698;6.314;2022-09-02T15:17:04;25.10;44.30
57829;DHT22;43657;52.698;6.314;2022-09-02T15:19:31;25.00;44.40
57829;DHT22;43657;52.698;6.314;2022-09-02T15:21:57;24.90;45.00
57829;DHT22;43657;52.698;6.314;2022-09-02T15:24:23;24.90;46.40
57829;DHT22;43657;52.698;6.314;2022-09-02T15:26:49;24.80;45.70
57829;DHT22;43657;52.698;6.314;2022-09-02T15:29:14;24.80;46.10
57829;DHT22;43657;52.698;6.314;2022-09-02T15:31:40;24.80;45.90
57829;DHT22;43657;52.698;6.314;2022-09-02T15:34:06;24.70;46.20
57829;DHT22;43657;52.698;6.314;2022-09-02T15:36:32;24.60;46.60
57829;DHT22;43657;52.698;6.314;2022-09-02T15:38:57;24.60;46.70
57829;DHT22;43657;52.698;6.314;2022-09-02T15:41:24;24.60;47.30
57829;DHT22;43657;52.698;6.314;2022-09-02T15:43:56;24.60;46.90
57829;DHT22;43657;52.698;6.314;2022-09-02T15:46:29;24.60;46.90
57829;DHT22;43657;52.698;6.314;2022-09-02T15:49:00;24.50;47.00
57829;DHT22;43657;52.698;6.314;2022-09-02T15:51:26;24.50;46.80
57829;DHT22;43657;52.698;6.314;2022-09-02T15:54:03;24.50;46.50
57829;DHT22;43657;52.698;6.314;2022-09-02T15:56:30;24.50;46.60
57829;DHT22;43657;52.698;6.314;2022-09-02T15:58:58;24.40;46.30
57829;DHT22;43657;52.698;6.314;2022-09-02T16:01:30;24.30;46.40
57829;DHT22;43657;52.698;6.314;2022-09-02T16:03:56;24.30;46.50
57829;DHT22;43657;52.698;6.314;2022-09-02T16:06:23;24.20;46.50
57829;DHT22;43657;52.698;6.314;2022-09-02T16:08:49;24.10;46.60
57829;DHT22;43657;52.698;6.314;2022-09-02T16:11:15;24.10;46.70
57829;DHT22;43657;52.698;6.314;2022-09-02T16:13:41;24.00;46.90
57829;DHT22;43657;52.698;6.314;2022-09-02T16:16:09;23.90;47.30
57829;DHT22;43657;52.698;6.314;2022-09-02T16:18:36;23.90;47.60
57829;DHT22;43657;52.698;6.314;2022-09-02T16:21:03;23.90;47.60
57829;DHT22;43657;52.698;6.314;2022-09-02T16:23:29;23.90;47.40
57829;DHT22;43657;52.698;6.314;2022-09-02T16:26:49;23.80;47.50
57829;DHT22;43657;52.698;6.314;2022-09-02T16:29:01;23.80;48.50
57829;DHT22;43657;52.698;6.314;2022-09-02T16:31:29;23.70;47.80
57829;DHT22;43657;52.698;6.314;2022-09-02T16:36:25;23.50;48.20
57829;DHT22;43657;52.698;6.314;2022-09-02T16:38:51;23.50;48.30
57829;DHT22;43657;52.698;6.314;2022-09-02T16:41:28;23.50;48.30
57829;DHT22;43657;52.698;6.314;2022-09-02T16:43:55;23.40;48.30
57829;DHT22;43657;52.698;6.314;2022-09-02T16:46:22;23.40;48.40
57829;DHT22;43657;52.698;6.314;2022-09-02T16:48:47;23.30;48.60
57829;DHT22;43657;52.698;6.314;2022-09-02T16:51:14;23.30;48.80
57829;DHT22;43657;52.698;6.314;2022-09-02T16:53:40;23.20;48.80
57829;DHT22;43657;52.698;6.314;2022-09-02T16:56:06;23.20;48.80
57829;DHT22;43657;52.698;6.314;2022-09-02T16:58:35;23.20;49.00
57829;DHT22;43657;52.698;6.314;2022-09-02T17:01:03;23.10;49.00
57829;DHT22;43657;52.698;6.314;2022-09-02T17:03:31;23.10;49.10
57829;DHT22;43657;52.698;6.314;2022-09-02T17:05:57;23.00;49.30
57829;DHT22;43657;52.698;6.314;2022-09-02T17:08:23;22.90;49.50
57829;DHT22;43657;52.698;6.314;2022-09-02T17:10:49;22.90;49.80
57829;DHT22;43657;52.698;6.314;2022-09-02T17:13:14;22.80;50.70
57829;DHT22;43657;52.698;6.314;2022-09-02T17:15:40;22.70;50.20
57829;DHT22;43657;52.698;6.314;2022-09-02T17:18:05;22.70;50.40
57829;DHT22;43657;52.698;6.314;2022-09-02T17:20:31;22.60;50.60
57829;DHT22;43657;52.698;6.314;2022-09-02T17:22:56;22.50;50.90
57829;DHT22;43657;52.698;6.314;2022-09-02T17:25:22;22.40;51.10
57829;DHT22;43657;52.698;6.314;2022-09-02T17:27:48;22.40;51.40
57829;DHT22;43657;52.698;6.314;2022-09-02T17:30:14;22.40;51.60
57829;DHT22;43657;52.698;6.314;2022-09-02T17:32:40;22.30;51.60
57829;DHT22;43657;52.698;6.314;2022-09-02T17:35:08;22.30;51.80
57829;DHT22;43657;52.698;6.314;2022-09-02T17:37:34;22.30;51.90
57829;DHT22;43657;52.698;6.314;2022-09-02T17:40:06;22.20;52.10
57829;DHT22;43657;52.698;6.314;2022-09-02T17:42:52;22.20;52.20
57829;DHT22;43657;52.698;6.314;2022-09-02T17:45:18;22.10;52.40
57829;DHT22;43657;52.698;6.314;2022-09-02T17:47:44;22.00;52.70
57829;DHT22;43657;52.698;6.314;2022-09-02T17:50:09;22.00;52.80
57829;DHT22;43657;52.698;6.314;2022-09-02T17:52:35;21.90;53.10
57829;DHT22;43657;52.698;6.314;2022-09-02T17:55:00;21.80;53.30
57829;DHT22;43657;52.698;6.314;2022-09-02T18:00:16;21.60;54.00
57829;DHT22;43657;52.698;6.314;2022-09-02T18:03:09;21.50;54.30
57829;DHT22;43657;52.698;6.314;2022-09-02T18:05:52;21.40;54.50